Latest Weather Observations for Katanning RS

IDW60801

Issued at 10:04 pm WST Thursday 25 May 2017 (issued every 30 minutes, with the page automatically refreshed every 10 minutes)

About weather observations | Map of weather stations | Latest weather observations for WA | Other Formats
Station Details ID: 010916 Name: KATANNING Lat: -33.69 Lon: 117.61 Height: 320.0 m
Data from the previous 72 hours. | See also: Recent months at Katanning RS
Date/Time
WST
Temp
°C
App
Temp
°C
Dew
Point
°C
Rel
Hum
%
Delta-T
°C
Wind Press
QNH
hPa
Press
MSL
hPa
Rain since
9am
mm
Dir  Spd
km/h
Gust
km/h
Spd
kts
Gust
kts
25/10:00pm 12.9 10.4 9.7 81 1.7 NW 13 17 7 9 1018.3 1018.0 0.0
25/09:30pm 13.4 10.9 9.8 79 1.9 NW 13 19 7 10 1018.3 1018.0 0.0
25/09:00pm 13.9 11.1 9.9 77 2.1 WNW 15 22 8 12 1018.2 1017.9 0.0
25/08:30pm 13.9 10.6 9.7 76 2.2 WNW 17 24 9 13 1018.4 1018.1 0.0
25/08:00pm 13.9 10.9 9.1 73 2.5 NW 15 20 8 11 1018.4 1018.1 0.0
25/07:30pm 13.9 11.1 8.7 71 2.7 NW 13 19 7 10 1018.2 1017.9 0.0
25/07:00pm 13.8 11.8 8.6 71 2.7 WNW 9 11 5 6 1018.2 1017.9 0.0
25/06:30pm 13.9 11.8 8.3 69 2.8 WNW 9 13 5 7 1018.1 1017.8 0.0
25/06:00pm 14.1 12.0 8.1 67 3.0 NW 9 13 5 7 1018.1 1017.8 0.0
25/05:30pm 15.0 12.8 8.0 63 3.6 NW 9 13 5 7 1018.1 1017.8 0.0
25/05:00pm 16.2 13.2 7.9 58 4.2 NW 13 20 7 11 1018.0 1017.7 0.0
25/04:30pm 17.2 13.4 7.5 53 5.0 NW 17 24 9 13 1018.1 1017.8 0.0
25/04:00pm 17.9 14.5 7.6 51 5.3 NW 15 28 8 15 1018.1 1017.8 0.0
25/03:30pm 18.0 13.6 7.4 50 5.4 NW 20 32 11 17 1018.0 1017.7 0.0
25/03:00pm 18.0 13.1 7.1 49 5.5 NW 22 30 12 16 1018.0 1017.7 0.0
25/02:30pm 18.3 13.4 7.1 48 5.7 NW 22 32 12 17 1018.1 1017.8 0.0
25/02:00pm 18.3 12.7 7.1 48 5.7 NW 26 35 14 19 1018.5 1018.2 0.0
25/01:30pm 18.4 13.5 8.4 52 5.2 NW 24 35 13 19 1018.8 1018.5 0.0
25/01:00pm 17.8 13.3 8.4 54 4.9 NW 22 33 12 18 1019.2 1018.8 0.0
25/12:30pm 17.3 12.7 8.2 55 4.7 NW 22 33 12 18 1019.8 1019.5 0.0
25/12:00pm 17.6 13.1 8.7 56 4.7 NW 22 33 12 18 1020.1 1019.8 0.0
25/11:30am 17.0 12.7 9.4 61 4.0 NW 22 28 12 15 1020.7 1020.4 0.0
25/11:00am 16.6 12.5 8.8 60 4.1 NNW 20 30 11 16 1021.2 1020.9 0.0
25/10:30am 15.9 13.1 10.0 68 3.1 NNW 15 22 8 12 1021.6 1021.3 0.0
25/10:00am 14.3 12.5 10.7 79 1.9 NNW 11 15 6 8 1022.0 1021.8 0.0
25/09:30am 12.9 11.5 10.8 87 1.1 NNW 9 13 5 7 1022.1 1021.9 0.0
25/09:00am 11.6 10.5 10.0 90 0.8 N 6 11 3 6 1022.1 1021.9 0.2
25/08:30am 10.0 8.5 8.6 91 0.7 N 6 7 3 4 1022.1 1021.9 0.2
25/08:00am 8.6 7.2 7.2 91 0.7 NW 4 6 2 3 1022.0 1021.8 0.2
25/07:30am 6.5 5.0 5.0 90 0.7 N 2 4 1 2 1021.6 1021.3 0.2
25/07:00am 7.5 5.4 6.0 90 0.7 NNW 6 6 3 3 1021.3 1021.0 0.2
25/06:30am 7.0 5.2 5.5 90 0.7 NNW 4 7 2 4 1021.4 1021.1 0.2
25/06:00am 7.7 5.5 6.2 90 0.7 NNW 7 9 4 5 1021.3 1021.0 0.2
25/05:30am 7.1 5.0 5.6 90 0.7 NW 6 6 3 3 1021.2 1020.9 0.2
25/05:00am 8.1 6.0 6.6 90 0.7 NW 7 9 4 5 1021.1 1020.8 0.0
25/04:30am 7.8 5.6 6.1 89 0.8 NNW 7 9 4 5 1021.2 1020.9 0.0
25/04:00am 8.2 7.4 6.5 89 0.8 CALM 0 0 0 0 1021.2 1020.9 0.0
25/03:30am 8.1 6.5 6.2 88 0.9 NW 4 6 2 3 1021.2 1020.9 0.0
25/03:00am 8.7 6.6 6.8 88 0.9 NW 7 7 4 4 1021.2 1020.9 0.0
25/02:30am 8.6 6.5 6.7 88 0.9 NNW 7 9 4 5 1021.3 1021.0 0.0
25/02:00am 8.3 6.3 6.3 87 0.9 NW 6 7 3 4 1021.3 1021.0 0.0
25/01:30am 8.8 7.3 6.6 86 1.0 W 4 6 2 3 1021.5 1021.2 0.0
25/01:00am 9.8 7.9 7.7 87 1.0 WNW 7 7 4 4 1021.5 1021.2 0.0
25/12:30am 9.5 7.8 7.4 87 1.0 WNW 6 7 3 4 1021.6 1021.3 0.0
25/12:00am 9.8 8.4 7.4 85 1.2 NW 4 6 2 3 1021.7 1021.4 0.0
 
Date/Time
WST
Temp
°C
App
Temp
°C
Dew
Point
°C
Rel
Hum
%
Delta-T
°C
Wind Press
QNH
hPa
Press
MSL
hPa
Rain since
9am
mm
Dir  Spd
km/h
Gust
km/h
Spd
kts
Gust
kts
24/11:30pm 10.0 8.0 7.1 82 1.4 WSW 7 7 4 4 1021.8 1021.6 0.0
24/11:00pm 10.9 9.3 8.1 83 1.4 WSW 6 6 3 3 1021.8 1021.6 0.0
24/10:30pm 11.2 9.7 8.4 83 1.4 WSW 6 6 3 3 1022.0 1021.8 0.0
24/10:00pm 11.3 9.7 8.2 81 1.5 WSW 6 7 3 4 1022.1 1021.9 0.0
24/09:30pm 11.3 9.5 8.0 80 1.6 WSW 7 9 4 5 1022.3 1022.0 0.0
24/09:00pm 11.2 9.3 7.5 78 1.8 WSW 7 9 4 5 1022.1 1021.9 0.0
24/08:30pm 12.1 10.3 7.8 75 2.1 WSW 7 9 4 5 1022.1 1021.9 0.0
24/08:00pm 13.2 11.6 8.1 71 2.6 WNW 6 7 3 4 1021.8 1021.6 0.0
24/07:30pm 14.1 12.5 8.7 70 2.8 WNW 7 9 4 5 1021.8 1021.6 0.0
24/07:00pm 13.9 12.3 8.9 72 2.6 WNW 7 9 4 5 1021.7 1021.4 0.0
24/06:30pm 13.8 12.2 8.2 69 2.8 WNW 6 7 3 4 1021.4 1021.1 0.0
24/06:00pm 14.4 12.6 8.1 66 3.2 W 7 9 4 5 1021.2 1020.9 0.0
24/05:30pm 14.8 13.3 8.3 65 3.3 WNW 6 6 3 3 1020.8 1020.5 0.0
24/05:00pm 15.3 13.5 7.8 61 3.8 WNW 7 9 4 5 1020.7 1020.4 0.0
24/04:30pm 16.0 13.8 7.7 58 4.2 WSW 9 19 5 10 1020.6 1020.3 0.0
24/04:00pm 16.5 14.0 8.0 57 4.4 WSW 11 19 6 10 1020.5 1020.2 0.0
24/03:30pm 16.3 13.3 7.5 56 4.5 WSW 13 17 7 9 1020.3 1020.0 0.0
24/03:00pm 16.6 13.2 7.5 55 4.6 W 15 22 8 12 1020.1 1019.8 0.0
24/02:30pm 16.6 12.7 7.3 54 4.7 WSW 17 24 9 13 1020.2 1019.9 0.0
24/02:00pm 16.9 13.4 7.0 52 5.0 W 15 24 8 13 1019.9 1019.6 0.0
24/01:30pm 17.5 13.3 7.5 52 5.1 WNW 19 30 10 16 1020.1 1019.8 0.0
24/01:00pm 17.0 12.1 7.1 52 5.0 WNW 22 32 12 17 1020.4 1020.1 0.0
24/12:30pm 16.2 12.0 7.4 56 4.5 W 19 28 10 15 1020.7 1020.4 0.0
24/12:00pm 15.8 11.1 7.6 58 4.1 W 22 32 12 17 1020.9 1020.6 0.0
24/11:30am 15.5 12.2 9.4 67 3.2 W 17 28 9 15 1021.3 1021.0 0.0
24/11:00am 15.2 12.8 10.0 71 2.7 WNW 13 20 7 11 1021.5 1021.2 0.0
24/10:30am 14.6 12.2 10.2 75 2.3 WNW 13 19 7 10 1021.7 1021.4 0.0
24/10:00am 14.3 12.1 10.9 80 1.8 NW 13 17 7 9 1021.8 1021.6 0.0
24/09:30am 13.9 11.8 11.1 83 1.5 NW 13 17 7 9 1021.7 1021.4 0.0
24/09:00am 13.4 11.4 11.5 88 1.0 NW 13 19 7 10 1021.7 1021.4 0.4
24/08:30am 12.5 10.7 10.7 89 1.0 NW 11 17 6 9 1021.5 1021.2 0.4
24/08:00am 12.1 10.6 10.5 90 0.8 NW 9 13 5 7 1021.2 1020.9 0.4
24/07:30am 12.0 10.5 10.4 90 0.8 NW 9 13 5 7 1021.0 1020.7 0.4
24/07:00am 12.0 10.5 10.4 90 0.8 WNW 9 15 5 8 1020.9 1020.6 0.4
24/06:30am 12.1 11.0 10.5 90 0.8 WNW 7 13 4 7 1020.7 1020.4 0.4
24/06:00am 12.2 10.3 10.6 90 0.8 W 11 19 6 10 1020.5 1020.2 0.2
24/05:30am 12.3 10.5 10.7 90 0.8 NW 11 17 6 9 1020.5 1020.2 0.2
24/05:00am 12.2 9.6 10.6 90 0.8 NW 15 20 8 11 1020.3 1020.0 0.2
24/04:30am 12.2 9.9 10.6 90 0.8 NW 13 17 7 9 1020.3 1020.0 0.2
24/04:00am 12.1 10.2 10.5 90 0.8 NW 11 17 6 9 1020.2 1019.9 0.2
24/03:30am 12.0 9.3 10.2 89 0.9 NW 15 22 8 12 1020.2 1019.9 0.0
24/03:00am 11.9 9.9 10.3 90 0.8 NW 11 15 6 8 1020.3 1020.0 0.0
24/02:30am 11.6 9.5 9.9 89 0.9 NW 11 17 6 9 1020.1 1019.8 0.0
24/02:00am 11.7 9.6 9.9 89 0.9 NW 11 13 6 7 1020.3 1020.0 0.0
24/01:30am 11.7 9.3 9.9 89 0.9 NNW 13 15 7 8 1020.4 1020.1 0.0
24/01:00am 12.1 9.7 10.2 88 1.0 NW 13 17 7 9 1020.5 1020.2 0.0
24/12:30am 12.3 10.4 10.4 88 1.0 WNW 11 17 6 9 1020.5 1020.2 0.0
24/12:00am 12.5 10.2 10.6 88 1.0 NW 13 17 7 9 1020.6 1020.3 0.0
 
Date/Time
WST
Temp
°C
App
Temp
°C
Dew
Point
°C
Rel
Hum
%
Delta-T
°C
Wind Press
QNH
hPa
Press
MSL
hPa
Rain since
9am
mm
Dir  Spd
km/h
Gust
km/h
Spd
kts
Gust
kts
23/11:30pm 12.0 9.9 9.9 87 1.1 NW 11 15 6 8 1020.8 1020.5 0.0
23/11:00pm 11.9 10.2 9.8 87 1.1 NW 9 13 5 7 1021.0 1020.7 0.0
23/10:30pm 11.9 10.6 9.8 87 1.1 WNW 7 11 4 6 1021.2 1020.9 0.0
23/10:00pm 12.0 10.6 9.7 86 1.2 WNW 7 11 4 6 1021.4 1021.1 0.0
23/09:30pm 12.2 10.9 9.9 86 1.2 NW 7 9 4 5 1021.4 1021.1 0.0
23/09:00pm 12.5 11.2 10.0 85 1.3 WNW 7 11 4 6 1021.4 1021.1 0.0
23/08:30pm 12.8 11.5 10.0 83 1.5 W 7 11 4 6 1021.3 1021.0 0.0
23/08:00pm 13.6 11.7 10.4 81 1.7 W 11 15 6 8 1021.3 1021.0 0.0
23/07:30pm 14.4 12.6 11.0 80 1.8 WNW 11 15 6 8 1021.4 1021.1 0.0
23/07:00pm 14.4 13.1 11.2 81 1.7 WNW 9 19 5 10 1021.3 1021.0 0.0
23/06:30pm 13.4 12.7 10.0 80 1.8 NW 4 6 2 3 1021.2 1020.9 0.0
23/06:00pm 13.9 13.2 9.9 77 2.1 NW 4 6 2 3 1021.1 1020.8 0.0
23/05:30pm 14.9 14.3 10.5 75 2.4 NW 4 4 2 2 1020.8 1020.5 0.0
23/05:00pm 15.4 13.8 10.2 71 2.8 WNW 9 13 5 7 1020.7 1020.4 0.0
23/04:30pm 15.6 14.5 10.6 72 2.7 WNW 7 13 4 7 1020.6 1020.3 0.0
23/04:00pm 15.4 13.9 10.6 73 2.6 NW 9 15 5 8 1020.6 1020.3 0.0
23/03:30pm 15.3 12.9 10.1 71 2.8 NW 13 19 7 10 1020.6 1020.3 0.0
23/03:00pm 15.8 12.6 10.1 69 3.0 NW 17 22 9 12 1020.5 1020.2 0.0
23/02:30pm 16.0 13.2 10.1 68 3.1 WNW 15 22 8 12 1020.4 1020.1 0.0
23/02:00pm 15.9 13.2 10.2 69 3.0 NW 15 22 8 12 1020.6 1020.3 0.0
23/01:30pm 15.5 12.6 9.8 69 3.0 NW 15 22 8 12 1020.7 1020.4 0.0
23/01:00pm 15.6 13.1 9.7 68 3.1 WNW 13 19 7 10 1020.9 1020.6 0.0
23/12:30pm 15.7 12.4 9.6 67 3.2 WNW 17 24 9 13 1021.0 1020.7 0.0
23/12:00pm 15.9 13.0 9.6 66 3.3 WNW 15 20 8 11 1021.3 1021.0 0.0
23/11:30am 15.7 13.2 9.8 68 3.1 WNW 13 22 7 12 1021.7 1021.4 0.0
23/11:00am 15.0 12.5 9.6 70 2.8 WNW 13 17 7 9 1022.0 1021.8 0.0
23/10:30am 15.0 12.5 9.8 71 2.7 WNW 13 20 7 11 1022.4 1022.1 0.0
23/10:00am 14.0 12.1 10.4 79 1.9 WNW 11 17 6 9 1022.5 1022.2 0.0
23/09:30am 12.9 10.9 10.1 83 1.5 NW 11 15 6 8 1022.5 1022.2 0.0
23/09:00am 12.1 9.7 10.2 88 1.0 WNW 13 22 7 12 1022.6 1022.3 0.0
23/08:30am 11.3 9.2 9.7 90 0.8 NW 11 19 6 10 1022.4 1022.1 0.0
23/08:00am 10.8 8.9 9.2 90 0.8 NW 9 13 5 7 1021.9 1021.7 0.0
23/07:30am 10.6 8.7 9.0 90 0.8 NW 9 13 5 7 1021.6 1021.3 0.0
23/07:00am 10.5 8.9 8.8 89 0.8 NW 7 11 4 6 1021.4 1021.1 0.0
23/06:30am 10.4 8.8 8.7 89 0.9 NW 7 9 4 5 1021.1 1020.8 0.0
23/06:00am 10.4 8.4 8.5 88 0.9 NW 9 13 5 7 1020.8 1020.5 0.0
23/05:30am 10.6 8.2 8.7 88 1.0 WNW 11 15 6 8 1020.6 1020.3 0.0
23/05:00am 10.8 8.5 8.9 88 1.0 WNW 11 17 6 9 1020.6 1020.3 0.0
23/04:30am 10.8 8.5 8.9 88 1.0 WNW 11 15 6 8 1020.5 1020.2 0.0
23/04:00am 10.8 7.7 8.9 88 1.0 WNW 15 20 8 11 1020.4 1020.1 0.0
23/03:30am 10.6 7.8 8.7 88 1.0 WNW 13 19 7 10 1020.2 1019.9 0.0
23/03:00am 10.6 7.8 8.5 87 1.0 WNW 13 20 7 11 1020.3 1020.0 0.0
23/02:30am 10.6 8.2 8.5 87 1.0 W 11 17 6 9 1019.9 1019.6 0.0
23/02:00am 10.6 8.2 8.5 87 1.0 WNW 11 17 6 9 1019.8 1019.5 0.0
23/01:30am 10.6 7.4 8.5 87 1.0 WNW 15 24 8 13 1019.9 1019.6 0.0
23/01:00am 10.5 7.6 8.3 86 1.1 W 13 17 7 9 1020.0 1019.7 0.0
23/12:30am 10.7 7.5 8.5 86 1.1 WNW 15 24 8 13 1020.1 1019.8 0.0
23/12:00am 10.9 7.7 8.5 85 1.2 WNW 15 19 8 10 1020.3 1020.0 0.0
 
Date/Time
WST
Temp
°C
App
Temp
°C
Dew
Point
°C
Rel
Hum
%
Delta-T
°C
Wind Press
QNH
hPa
Press
MSL
hPa
Rain since
9am
mm
Dir  Spd
km/h
Gust
km/h
Spd
kts
Gust
kts
22/11:30pm 11.0 9.0 8.8 86 1.1 WNW 9 17 5 9 1020.5 1020.2 0.0
22/11:00pm 10.8 8.4 8.6 86 1.1 WNW 11 15 6 8 1020.7 1020.4 0.0
22/10:30pm 11.0 7.9 8.8 86 1.1 WNW 15 19 8 10 1020.8 1020.5 0.0

Other Formats:

Comma delimited format used in spreadsheet applications
http://www.bom.gov.au/fwo/IDW60801/IDW60801.94641.axf

JavaScript Object Notation format (JSON) in row-major order
http://www.bom.gov.au/fwo/IDW60801/IDW60801.94641.json